Time;durP1;ratioP1;P1;durP2;ratioP2;P2;SDS_P1;SDS_P2;PMS_P1;PMS_P2;Temp;Humidity;BMP_temperature;BMP_pressure;BME280_temperature;BME280_humidity;BME280_pressure;Samples;Min_cycle;Max_cycle;Signal;HPM_P1;HPM_P2
2023/01/25 00:01:09;;;;;;;455.33;218.93;;;;;;;;;;4959468;28;20233;-51
2023/01/25 00:03:36;;;;;;;446.73;215.07;;;;;;;;;;4944673;28;20301;-51
2023/01/25 00:06:02;;;;;;;413.83;194.33;;;;;;;;;;4944349;28;21580;-51
2023/01/25 00:08:28;;;;;;;467.30;230.13;;;;;;;;;;4955663;28;20621;-51
2023/01/25 00:10:55;;;;;;;415.93;190.47;;;;;;;;;;4944763;28;20206;-50
2023/01/25 00:13:21;;;;;;;422.30;195.73;;;;;;;;;;4944302;28;20298;-51
2023/01/25 00:15:47;;;;;;;441.10;204.03;;;;;;;;;;4944099;28;20705;-50
2023/01/25 00:18:14;;;;;;;415.17;191.00;;;;;;;;;;4942904;28;20288;-51
2023/01/25 00:21:04;;;;;;;440.73;201.57;;;;;;;;;;4960421;28;20183;-51
2023/01/25 00:23:37;;;;;;;499.03;241.20;;;;;;;;;;4943126;28;20190;-51
2023/01/25 00:26:03;;;;;;;409.27;194.27;;;;;;;;;;4959238;28;20716;-50
2023/01/25 00:28:29;;;;;;;453.67;216.60;;;;;;;;;;4944260;28;20218;-51
2023/01/25 00:30:59;;;;;;;471.43;226.23;;;;;;;;;;4944298;28;20219;-51
2023/01/25 00:33:31;;;;;;;413.47;200.87;;;;;;;;;;4958972;28;20246;-51
2023/01/25 00:35:58;;;;;;;376.87;172.07;;;;;;;;;;4944137;28;20219;-51
2023/01/25 00:38:29;;;;;;;439.70;206.33;;;;;;;;;;4945538;28;20183;-51
2023/01/25 00:40:57;;;;;;;445.77;209.63;;;;;;;;;;4944583;28;20226;-50
2023/01/25 00:43:24;;;;;;;382.83;184.57;;;;;;;;;;4944432;28;20741;-51
2023/01/25 00:45:50;;;;;;;424.63;203.00;;;;;;;;;;4945205;28;20234;-51
2023/01/25 00:48:17;;;;;;;371.87;173.67;;;;;;;;;;4944943;28;20222;-51
2023/01/25 00:50:43;;;;;;;411.27;199.30;;;;;;;;;;4943003;28;20190;-51
2023/01/25 00:53:09;;;;;;;372.03;180.50;;;;;;;;;;4945383;28;20187;-51
2023/01/25 00:55:38;;;;;;;353.83;169.07;;;;;;;;;;4944286;28;20307;-50
2023/01/25 00:58:04;;;;;;;503.83;260.43;;;;;;;;;;4973492;23;20277;-50
2023/01/25 01:00:30;;;;;;;483.40;244.23;;;;;;;;;;4973170;28;20625;-49
2023/01/25 01:02:56;;;;;;;509.27;260.67;;;;;;;;;;4981034;28;20222;-48
2023/01/25 01:05:22;;;;;;;499.83;255.00;;;;;;;;;;4973743;28;20218;-49
2023/01/25 01:07:49;;;;;;;518.20;263.63;;;;;;;;;;4969262;28;20244;-49
2023/01/25 01:10:15;;;;;;;529.37;279.70;;;;;;;;;;4961672;28;20699;-49
2023/01/25 01:12:41;;;;;;;505.20;255.77;;;;;;;;;;4971667;28;20251;-48
2023/01/25 01:15:08;;;;;;;458.10;231.60;;;;;;;;;;4980020;28;20558;-48
2023/01/25 01:17:34;;;;;;;418.50;219.93;;;;;;;;;;5005114;28;20197;-49
2023/01/25 01:20:00;;;;;;;519.07;264.97;;;;;;;;;;4991874;28;20189;-49
2023/01/25 01:22:26;;;;;;;539.67;278.93;;;;;;;;;;5047038;28;20221;-49
2023/01/25 01:24:52;;;;;;;495.33;251.53;;;;;;;;;;5000662;28;20226;-49
2023/01/25 01:27:18;;;;;;;465.40;234.03;;;;;;;;;;4970636;28;20700;-49
2023/01/25 01:29:45;;;;;;;482.57;249.33;;;;;;;;;;4982484;28;20178;-49
2023/01/25 01:32:11;;;;;;;472.63;247.23;;;;;;;;;;4962575;28;20182;-49
2023/01/25 01:34:37;;;;;;;514.77;264.83;;;;;;;;;;4975891;28;20721;-49
2023/01/25 01:37:03;;;;;;;479.50;238.43;;;;;;;;;;4979597;28;20487;-49
2023/01/25 01:39:29;;;;;;;461.60;233.07;;;;;;;;;;4985167;28;20833;-49
2023/01/25 01:41:55;;;;;;;494.40;251.33;;;;;;;;;;4979985;28;20328;-48
2023/01/25 01:44:41;;;;;;;491.57;251.00;;;;;;;;;;4969829;28;20289;-49
2023/01/25 01:47:11;;;;;;;508.37;255.17;;;;;;;;;;4981870;28;20701;-48
2023/01/25 01:49:38;;;;;;;524.97;282.40;;;;;;;;;;4969672;28;20221;-49
2023/01/25 01:52:10;;;;;;;520.67;271.50;;;;;;;;;;4966304;28;20274;-49
2023/01/25 01:54:39;;;;;;;477.73;245.00;;;;;;;;;;4967565;28;20386;-49
2023/01/25 01:57:06;;;;;;;553.50;285.63;;;;;;;;;;4958471;28;20739;-50
2023/01/25 01:59:39;;;;;;;506.73;267.40;;;;;;;;;;4971595;28;20896;-50
2023/01/25 02:02:05;;;;;;;495.37;253.93;;;;;;;;;;4972691;28;20291;-49
2023/01/25 02:04:32;;;;;;;455.87;230.23;;;;;;;;;;4961073;28;20260;-49
2023/01/25 02:07:19;;;;;;;478.57;246.87;;;;;;;;;;4958699;28;20256;-48
2023/01/25 02:09:45;;;;;;;490.33;245.67;;;;;;;;;;4951308;28;20217;-49
2023/01/25 02:12:12;;;;;;;517.40;261.00;;;;;;;;;;4950715;28;20698;-49
2023/01/25 02:14:45;;;;;;;480.30;249.87;;;;;;;;;;4960230;28;20201;-49
2023/01/25 02:17:11;;;;;;;534.27;273.90;;;;;;;;;;4952804;28;21244;-50
2023/01/25 02:20:04;;;;;;;496.17;252.97;;;;;;;;;;4954881;28;20235;-50
2023/01/25 02:22:33;;;;;;;495.83;259.73;;;;;;;;;;4953373;28;20229;-50
2023/01/25 02:25:04;;;;;;;508.53;256.90;;;;;;;;;;4956895;28;20236;-49
2023/01/25 02:27:31;;;;;;;478.53;246.90;;;;;;;;;;4968987;28;20499;-49
2023/01/25 02:29:58;;;;;;;506.47;266.17;;;;;;;;;;4977878;28;20700;-49
2023/01/25 02:32:24;;;;;;;517.97;273.63;;;;;;;;;;4993406;28;20239;-49
2023/01/25 02:34:50;;;;;;;502.27;261.53;;;;;;;;;;4966785;28;20236;-50
2023/01/25 02:37:17;;;;;;;533.60;277.53;;;;;;;;;;4968701;28;20253;-50
2023/01/25 02:39:43;;;;;;;481.07;240.67;;;;;;;;;;4970736;28;20217;-50
2023/01/25 02:42:09;;;;;;;507.67;261.00;;;;;;;;;;4971765;28;20279;-49
2023/01/25 02:44:36;;;;;;;491.13;254.83;;;;;;;;;;4959254;28;20694;-49
2023/01/25 02:47:02;;;;;;;480.43;246.30;;;;;;;;;;4976896;28;20438;-49
2023/01/25 02:49:28;;;;;;;505.47;255.63;;;;;;;;;;4971468;28;20225;-49
2023/01/25 02:51:56;;;;;;;491.07;249.70;;;;;;;;;;4972918;28;20442;-49
2023/01/25 02:54:22;;;;;;;519.53;268.00;;;;;;;;;;4967106;28;20477;-49
2023/01/25 02:56:49;;;;;;;495.23;249.90;;;;;;;;;;4975008;28;20270;-49
2023/01/25 02:59:17;;;;;;;541.90;276.13;;;;;;;;;;4975758;28;20405;-49
2023/01/25 03:01:43;;;;;;;526.80;276.73;;;;;;;;;;4983919;28;20217;-49
2023/01/25 03:04:10;;;;;;;500.30;255.57;;;;;;;;;;4991297;28;20237;-50
2023/01/25 03:06:36;;;;;;;515.03;267.27;;;;;;;;;;4975839;28;21695;-50
2023/01/25 03:09:03;;;;;;;508.60;255.90;;;;;;;;;;4964278;28;20340;-49
2023/01/25 03:11:30;;;;;;;559.10;297.03;;;;;;;;;;4965045;28;20221;-49
2023/01/25 03:13:57;;;;;;;482.50;246.53;;;;;;;;;;4969946;28;20189;-50
2023/01/25 03:16:23;;;;;;;547.37;286.77;;;;;;;;;;4972075;28;20221;-49
2023/01/25 03:18:52;;;;;;;484.07;242.07;;;;;;;;;;4985138;28;20282;-49
2023/01/25 03:21:19;;;;;;;485.67;256.63;;;;;;;;;;4960196;28;20278;-49
2023/01/25 03:23:46;;;;;;;508.70;261.20;;;;;;;;;;4977051;28;20667;-49
2023/01/25 03:26:16;;;;;;;530.33;270.73;;;;;;;;;;4976763;28;20311;-51
2023/01/25 03:28:43;;;;;;;509.17;252.80;;;;;;;;;;4981682;28;20658;-50
2023/01/25 03:31:10;;;;;;;525.30;263.53;;;;;;;;;;4984945;28;20265;-49
2023/01/25 03:33:36;;;;;;;506.97;259.87;;;;;;;;;;5005364;28;20248;-49
2023/01/25 03:36:03;;;;;;;493.00;247.93;;;;;;;;;;5007363;28;20245;-49
2023/01/25 03:38:29;;;;;;;500.07;252.17;;;;;;;;;;5016622;28;20198;-49
2023/01/25 03:40:56;;;;;;;535.60;281.40;;;;;;;;;;5006756;28;20777;-48
2023/01/25 03:43:22;;;;;;;485.67;241.23;;;;;;;;;;4975729;28;20244;-49
2023/01/25 03:45:52;;;;;;;500.97;260.73;;;;;;;;;;4990740;28;20304;-49
2023/01/25 03:48:19;;;;;;;568.53;295.33;;;;;;;;;;4971034;28;20218;-49
2023/01/25 03:50:51;;;;;;;536.20;276.47;;;;;;;;;;4994320;28;20381;-48
2023/01/25 03:53:31;;;;;;;524.60;273.93;;;;;;;;;;4965629;28;20200;-48
2023/01/25 03:55:59;;;;;;;481.10;241.17;;;;;;;;;;4968067;28;20221;-48
2023/01/25 03:58:25;;;;;;;493.40;251.00;;;;;;;;;;4969538;28;20233;-48
2023/01/25 04:00:51;;;;;;;468.73;236.50;;;;;;;;;;4986373;28;20247;-49
2023/01/25 04:03:18;;;;;;;537.37;272.67;;;;;;;;;;4962456;28;20225;-49
2023/01/25 04:05:45;;;;;;;494.83;247.23;;;;;;;;;;4998250;28;20245;-49
2023/01/25 04:08:11;;;;;;;543.83;284.73;;;;;;;;;;4977734;28;20280;-49
2023/01/25 04:10:37;;;;;;;532.30;264.60;;;;;;;;;;4975612;28;20274;-49
2023/01/25 04:13:04;;;;;;;474.40;234.97;;;;;;;;;;4998826;28;20206;-48
2023/01/25 04:15:30;;;;;;;526.37;268.27;;;;;;;;;;4991854;28;20222;-49
2023/01/25 04:17:56;;;;;;;502.17;253.37;;;;;;;;;;4967148;28;20278;-48
2023/01/25 04:20:22;;;;;;;498.90;252.10;;;;;;;;;;4977980;28;20250;-49
2023/01/25 04:22:48;;;;;;;507.63;253.87;;;;;;;;;;4972299;28;20780;-49
2023/01/25 04:25:15;;;;;;;508.00;267.47;;;;;;;;;;4971849;28;20547;-49
2023/01/25 04:27:41;;;;;;;534.70;277.03;;;;;;;;;;4963899;28;20312;-49
2023/01/25 04:30:07;;;;;;;494.83;252.47;;;;;;;;;;4978555;28;20218;-49
2023/01/25 04:32:37;;;;;;;509.20;255.13;;;;;;;;;;4969981;28;20592;-49
2023/01/25 04:35:03;;;;;;;504.63;247.77;;;;;;;;;;4970673;28;20315;-50
2023/01/25 04:37:29;;;;;;;514.87;264.53;;;;;;;;;;4979584;28;20310;-50
2023/01/25 04:39:55;;;;;;;505.03;256.93;;;;;;;;;;4967081;28;20312;-48
2023/01/25 04:42:21;;;;;;;521.03;269.13;;;;;;;;;;4979237;28;20310;-49
2023/01/25 04:44:47;;;;;;;490.60;246.90;;;;;;;;;;4968830;28;20378;-49
2023/01/25 04:47:13;;;;;;;545.97;287.70;;;;;;;;;;4977030;28;20272;-49
2023/01/25 04:49:39;;;;;;;540.70;275.43;;;;;;;;;;4964819;28;20301;-49
2023/01/25 04:52:06;;;;;;;531.43;274.43;;;;;;;;;;4975558;28;20218;-48
2023/01/25 04:54:32;;;;;;;494.20;249.07;;;;;;;;;;4996141;28;20269;-49
2023/01/25 04:56:58;;;;;;;493.23;248.13;;;;;;;;;;4995226;28;20245;-49
2023/01/25 04:59:24;;;;;;;526.47;283.07;;;;;;;;;;4969591;28;20213;-49
2023/01/25 05:01:50;;;;;;;509.57;267.70;;;;;;;;;;4973540;28;20320;-49
2023/01/25 05:04:16;;;;;;;495.93;257.17;;;;;;;;;;4977505;28;20220;-49
2023/01/25 05:06:43;;;;;;;485.93;240.20;;;;;;;;;;4979105;28;20301;-49
2023/01/25 05:09:10;;;;;;;541.87;279.53;;;;;;;;;;4959106;28;20229;-48
2023/01/25 05:11:35;;;;;;;499.33;255.93;;;;;;;;;;4970542;28;20273;-49
2023/01/25 05:14:02;;;;;;;527.67;269.80;;;;;;;;;;4966019;28;20189;-49
2023/01/25 05:16:28;;;;;;;488.93;244.27;;;;;;;;;;4999608;28;20270;-48
2023/01/25 05:18:54;;;;;;;540.73;280.03;;;;;;;;;;5012094;28;20214;-48
2023/01/25 05:24:06;;;;;;;489.83;242.23;;;;;;;;;;5006793;28;20305;-48
2023/01/25 05:29:17;;;;;;;491.53;255.47;;;;;;;;;;4978980;28;20669;-50
2023/01/25 05:31:43;;;;;;;505.53;262.60;;;;;;;;;;4971968;28;20243;-50
2023/01/25 05:34:09;;;;;;;514.93;260.33;;;;;;;;;;4978057;28;20579;-49
2023/01/25 05:36:35;;;;;;;519.07;273.10;;;;;;;;;;4972773;28;21077;-49
2023/01/25 05:39:04;;;;;;;513.43;261.57;;;;;;;;;;4978289;28;20265;-49
2023/01/25 05:41:30;;;;;;;507.27;260.63;;;;;;;;;;4975332;28;20189;-50
2023/01/25 05:43:56;;;;;;;462.03;238.17;;;;;;;;;;4968216;28;20193;-50
2023/01/25 05:46:22;;;;;;;533.80;274.53;;;;;;;;;;4987791;28;20222;-50
2023/01/25 05:48:49;;;;;;;486.87;254.97;;;;;;;;;;4982071;28;20323;-50
2023/01/25 05:51:15;;;;;;;550.87;285.63;;;;;;;;;;4959578;28;20310;-50
2023/01/25 05:53:41;;;;;;;492.60;256.03;;;;;;;;;;4979811;28;20197;-50
2023/01/25 05:56:09;;;;;;;520.17;278.20;;;;;;;;;;4987710;28;20198;-49
2023/01/25 05:58:35;;;;;;;521.07;267.10;;;;;;;;;;4968339;28;20271;-49
2023/01/25 06:01:01;;;;;;;485.57;258.93;;;;;;;;;;4968515;28;20768;-50
2023/01/25 06:03:28;;;;;;;524.73;274.53;;;;;;;;;;4963728;28;20677;-50
2023/01/25 06:05:58;;;;;;;521.67;265.07;;;;;;;;;;4999543;28;20480;-50
2023/01/25 06:08:24;;;;;;;519.83;268.07;;;;;;;;;;4988937;28;20643;-50
2023/01/25 06:10:50;;;;;;;493.13;238.57;;;;;;;;;;5005532;28;20226;-51
2023/01/25 06:13:17;;;;;;;505.27;252.17;;;;;;;;;;5035551;28;20239;-50
2023/01/25 06:15:43;;;;;;;539.57;278.07;;;;;;;;;;4994457;28;20751;-48
2023/01/25 06:18:09;;;;;;;515.63;255.27;;;;;;;;;;4980436;28;20330;-49
2023/01/25 06:20:35;;;;;;;515.53;264.13;;;;;;;;;;4985133;28;20178;-50
2023/01/25 06:23:01;;;;;;;460.40;228.43;;;;;;;;;;4974108;28;20211;-49
2023/01/25 06:25:27;;;;;;;610.47;333.50;;;;;;;;;;4967693;28;20256;-49
2023/01/25 06:27:54;;;;;;;534.73;277.10;;;;;;;;;;4967892;28;20677;-49
2023/01/25 06:30:20;;;;;;;541.20;279.30;;;;;;;;;;4982254;28;20357;-49
2023/01/25 06:32:46;;;;;;;552.70;287.10;;;;;;;;;;4981131;28;22213;-50
2023/01/25 06:35:12;;;;;;;554.70;288.27;;;;;;;;;;4966745;28;20189;-50
2023/01/25 06:37:38;;;;;;;642.30;335.33;;;;;;;;;;4976707;28;20281;-49
2023/01/25 06:40:05;;;;;;;474.23;242.83;;;;;;;;;;4965967;28;20229;-49
2023/01/25 06:42:31;;;;;;;598.90;307.77;;;;;;;;;;4964478;28;20719;-50
2023/01/25 06:44:57;;;;;;;629.90;328.40;;;;;;;;;;4969559;28;20262;-49
2023/01/25 06:47:23;;;;;;;586.17;316.70;;;;;;;;;;4950278;28;20341;-49
2023/01/25 06:49:49;;;;;;;519.67;257.57;;;;;;;;;;4949483;28;20225;-49
2023/01/25 06:52:16;;;;;;;624.47;326.03;;;;;;;;;;4967433;28;20431;-49
2023/01/25 06:54:42;;;;;;;610.10;312.47;;;;;;;;;;4994864;28;20218;-49
2023/01/25 06:57:11;;;;;;;502.50;259.13;;;;;;;;;;5008607;22;20285;-49
2023/01/25 06:59:37;;;;;;;473.97;251.30;;;;;;;;;;4993186;28;20260;-48
2023/01/25 07:02:03;;;;;;;481.07;249.20;;;;;;;;;;5000548;28;20734;-48
2023/01/25 07:04:29;;;;;;;484.93;260.20;;;;;;;;;;4992493;28;20393;-49
2023/01/25 07:06:55;;;;;;;508.13;275.97;;;;;;;;;;4979491;28;20940;-47
2023/01/25 07:09:22;;;;;;;503.10;270.00;;;;;;;;;;4976019;28;20236;-48
2023/01/25 07:11:49;;;;;;;539.37;293.17;;;;;;;;;;4985713;28;20251;-48
2023/01/25 07:14:15;;;;;;;521.43;278.47;;;;;;;;;;4965244;28;21542;-48
2023/01/25 07:16:41;;;;;;;484.27;260.90;;;;;;;;;;4978528;28;20256;-50
2023/01/25 07:19:09;;;;;;;502.10;278.50;;;;;;;;;;4972614;28;20225;-48
2023/01/25 07:21:36;;;;;;;500.63;263.33;;;;;;;;;;4974924;28;20252;-48
2023/01/25 07:24:03;;;;;;;557.13;306.57;;;;;;;;;;4978046;28;21385;-50
2023/01/25 07:26:31;;;;;;;512.17;267.87;;;;;;;;;;4966140;28;20638;-50
2023/01/25 07:28:57;;;;;;;569.67;312.23;;;;;;;;;;4963954;28;20205;-55
2023/01/25 07:31:24;;;;;;;573.70;311.83;;;;;;;;;;4961646;28;20306;-51
2023/01/25 07:33:51;;;;;;;505.13;277.80;;;;;;;;;;4974104;28;20213;-49
2023/01/25 07:36:18;;;;;;;566.07;315.47;;;;;;;;;;4973315;28;20572;-51
2023/01/25 07:38:44;;;;;;;502.30;270.73;;;;;;;;;;4966554;28;20220;-49
2023/01/25 07:41:11;;;;;;;473.80;254.30;;;;;;;;;;4974084;28;20438;-48
2023/01/25 07:43:38;;;;;;;556.70;300.27;;;;;;;;;;4976363;28;20353;-49
2023/01/25 07:46:10;;;;;;;504.73;261.23;;;;;;;;;;4975355;28;20295;-50
2023/01/25 07:48:36;;;;;;;486.77;258.37;;;;;;;;;;4973619;28;20224;-50
2023/01/25 07:51:21;;;;;;;528.37;268.87;;;;;;;;;;4969647;28;25120;-50
2023/01/25 07:53:47;;;;;;;545.97;288.43;;;;;;;;;;4970644;28;20228;-48
2023/01/25 07:56:13;;;;;;;527.87;281.23;;;;;;;;;;4953916;28;20189;-49
2023/01/25 07:58:40;;;;;;;593.47;334.03;;;;;;;;;;4947243;28;20862;-51
2023/01/25 08:01:07;;;;;;;489.60;245.17;;;;;;;;;;4986987;28;20219;-49
2023/01/25 08:03:33;;;;;;;529.23;275.87;;;;;;;;;;4991593;28;20212;-48
2023/01/25 08:05:59;;;;;;;539.10;278.13;;;;;;;;;;4989864;28;20232;-50
2023/01/25 08:08:25;;;;;;;500.80;250.93;;;;;;;;;;4991105;28;20205;-48
2023/01/25 08:10:51;;;;;;;483.30;248.93;;;;;;;;;;4992101;28;20611;-48
2023/01/25 08:13:17;;;;;;;529.73;267.27;;;;;;;;;;4992948;28;20213;-48
2023/01/25 08:15:43;;;;;;;499.77;266.20;;;;;;;;;;4990082;28;20664;-49
2023/01/25 08:18:09;;;;;;;487.90;253.30;;;;;;;;;;4993766;28;20255;-50
2023/01/25 08:20:36;;;;;;;501.27;256.27;;;;;;;;;;4992483;28;20204;-49
2023/01/25 08:23:02;;;;;;;484.53;246.23;;;;;;;;;;4993482;28;20217;-49
2023/01/25 08:25:28;;;;;;;502.20;259.07;;;;;;;;;;4984041;28;20300;-48
2023/01/25 08:27:55;;;;;;;473.00;239.93;;;;;;;;;;4993100;28;20938;-48
2023/01/25 08:30:21;;;;;;;514.70;265.87;;;;;;;;;;4989308;28;20216;-49
2023/01/25 08:32:47;;;;;;;466.27;233.93;;;;;;;;;;4993124;28;20224;-50
2023/01/25 08:35:13;;;;;;;483.10;250.97;;;;;;;;;;4996252;28;20181;-48
2023/01/25 08:37:39;;;;;;;504.23;262.03;;;;;;;;;;4993553;28;20641;-48
2023/01/25 08:40:06;;;;;;;509.83;262.63;;;;;;;;;;4985665;28;20277;-50
2023/01/25 08:42:32;;;;;;;458.57;227.50;;;;;;;;;;4988858;28;20265;-48
2023/01/25 08:44:58;;;;;;;486.90;240.40;;;;;;;;;;4992537;28;20301;-48
2023/01/25 08:47:25;;;;;;;474.63;245.67;;;;;;;;;;4985830;28;20291;-49
2023/01/25 08:49:51;;;;;;;503.77;262.40;;;;;;;;;;4994676;28;20225;-49
2023/01/25 08:52:17;;;;;;;524.20;276.47;;;;;;;;;;4972283;28;20283;-50
2023/01/25 08:54:43;;;;;;;498.13;255.47;;;;;;;;;;4966605;28;20266;-48
2023/01/25 08:57:10;;;;;;;520.30;274.67;;;;;;;;;;4964924;28;20244;-50
2023/01/25 08:59:36;;;;;;;524.43;271.60;;;;;;;;;;4972177;28;20575;-49
2023/01/25 09:02:02;;;;;;;509.77;263.53;;;;;;;;;;4971095;28;20605;-50
2023/01/25 09:04:28;;;;;;;541.67;283.80;;;;;;;;;;4961066;28;20221;-50
2023/01/25 09:06:54;;;;;;;511.80;263.80;;;;;;;;;;4968499;28;20304;-49
2023/01/25 09:09:21;;;;;;;550.43;295.77;;;;;;;;;;4951367;28;21705;-51
2023/01/25 09:11:47;;;;;;;495.73;249.57;;;;;;;;;;4974447;28;20878;-49
2023/01/25 09:14:13;;;;;;;512.17;277.93;;;;;;;;;;4953414;28;20177;-49
2023/01/25 09:16:39;;;;;;;521.50;282.37;;;;;;;;;;4965232;28;20669;-51
2023/01/25 09:19:06;;;;;;;505.23;265.60;;;;;;;;;;4961664;28;20261;-48
2023/01/25 09:21:32;;;;;;;551.90;297.57;;;;;;;;;;4959214;28;20248;-50
2023/01/25 09:23:59;;;;;;;536.20;279.33;;;;;;;;;;4953691;28;20583;-50
2023/01/25 09:26:25;;;;;;;520.33;276.47;;;;;;;;;;4967911;28;20682;-50
2023/01/25 09:28:52;;;;;;;566.73;303.80;;;;;;;;;;4957529;28;20287;-49
2023/01/25 09:31:18;;;;;;;570.20;303.13;;;;;;;;;;4959476;28;20228;-48
2023/01/25 09:33:45;;;;;;;552.27;294.30;;;;;;;;;;4942376;28;20209;-49
2023/01/25 09:36:11;;;;;;;559.93;310.17;;;;;;;;;;4953785;28;20344;-51
2023/01/25 09:38:37;;;;;;;507.10;268.23;;;;;;;;;;4964907;28;20217;-50
2023/01/25 09:41:09;;;;;;;540.90;289.87;;;;;;;;;;4944882;28;20747;-50
2023/01/25 09:43:41;;;;;;;613.77;347.13;;;;;;;;;;4956646;28;20218;-48
2023/01/25 09:46:17;;;;;;;483.97;259.17;;;;;;;;;;4964980;28;20295;-49
2023/01/25 09:48:49;;;;;;;552.23;301.93;;;;;;;;;;4953461;28;20227;-48
2023/01/25 09:51:26;;;;;;;511.30;264.40;;;;;;;;;;4971506;28;20567;-50
2023/01/25 09:53:56;;;;;;;527.53;280.83;;;;;;;;;;4965120;28;20242;-48
2023/01/25 09:56:22;;;;;;;511.80;268.63;;;;;;;;;;4979585;28;20645;-49
2023/01/25 09:58:50;;;;;;;481.07;249.33;;;;;;;;;;4972848;28;20227;-50
2023/01/25 10:01:19;;;;;;;538.93;282.80;;;;;;;;;;4967472;28;20690;-50
2023/01/25 10:03:54;;;;;;;535.90;280.70;;;;;;;;;;4961865;28;20325;-50
2023/01/25 10:06:22;;;;;;;557.53;292.23;;;;;;;;;;4960085;28;20713;-49
2023/01/25 10:08:51;;;;;;;569.03;306.00;;;;;;;;;;4955953;28;20233;-48
2023/01/25 10:11:31;;;;;;;571.77;316.70;;;;;;;;;;4956940;28;20193;-50
2023/01/25 10:13:58;;;;;;;523.83;282.40;;;;;;;;;;4967990;28;20676;-51
2023/01/25 10:16:50;;;;;;;553.60;305.37;;;;;;;;;;4960593;28;20330;-50
2023/01/25 10:19:31;;;;;;;515.77;276.00;;;;;;;;;;4942871;28;20239;-51
2023/01/25 10:22:04;;;;;;;517.30;269.67;;;;;;;;;;4963032;28;20295;-50
2023/01/25 10:24:30;;;;;;;488.47;259.17;;;;;;;;;;4974209;28;20209;-48
2023/01/25 10:26:58;;;;;;;497.07;255.40;;;;;;;;;;4968038;28;20248;-50
2023/01/25 10:29:27;;;;;;;502.33;255.57;;;;;;;;;;4968053;28;20200;-48
2023/01/25 10:31:54;;;;;;;487.03;255.83;;;;;;;;;;4966633;28;20360;-48
2023/01/25 10:34:22;;;;;;;550.53;301.10;;;;;;;;;;4949740;28;20235;-49
2023/01/25 10:36:55;;;;;;;522.70;277.93;;;;;;;;;;4971339;28;20221;-50
2023/01/25 10:39:21;;;;;;;530.70;285.83;;;;;;;;;;4958489;28;20220;-48
2023/01/25 10:41:57;;;;;;;523.33;281.40;;;;;;;;;;4961093;28;20359;-48
2023/01/25 10:44:25;;;;;;;553.67;299.90;;;;;;;;;;4963346;28;20320;-48
2023/01/25 10:47:05;;;;;;;546.80;305.53;;;;;;;;;;4959477;28;20327;-50
2023/01/25 10:49:38;;;;;;;577.17;295.80;;;;;;;;;;4943978;28;20326;-50
2023/01/25 10:52:15;;;;;;;555.93;283.33;;;;;;;;;;4950003;28;20289;-50
2023/01/25 10:54:41;;;;;;;545.57;282.03;;;;;;;;;;4942864;28;20266;-49
2023/01/25 10:57:08;;;;;;;543.67;295.47;;;;;;;;;;4960486;28;20227;-51
2023/01/25 10:59:35;;;;;;;569.03;304.47;;;;;;;;;;4955118;28;20235;-48
2023/01/25 11:02:20;;;;;;;435.03;233.50;;;;;;;;;;4975256;28;20322;-50
2023/01/25 11:04:47;;;;;;;533.37;284.00;;;;;;;;;;4974926;28;20270;-50
2023/01/25 11:07:27;;;;;;;545.87;294.27;;;;;;;;;;4967187;28;20236;-48
2023/01/25 11:09:54;;;;;;;535.87;276.03;;;;;;;;;;4973989;28;20300;-48
2023/01/25 11:12:20;;;;;;;561.83;308.77;;;;;;;;;;4963684;28;20627;-50
2023/01/25 11:14:50;;;;;;;593.10;330.53;;;;;;;;;;4949866;28;20331;-49
2023/01/25 11:17:29;;;;;;;592.97;329.43;;;;;;;;;;4949260;28;20205;-51
2023/01/25 11:20:10;;;;;;;552.60;284.83;;;;;;;;;;4966012;28;20957;-49
2023/01/25 11:22:36;;;;;;;491.90;249.83;;;;;;;;;;4969985;28;20309;-48
2023/01/25 11:25:22;;;;;;;504.20;257.83;;;;;;;;;;4966989;28;20741;-47
2023/01/25 11:27:48;;;;;;;523.63;286.10;;;;;;;;;;4966920;28;20221;-48
2023/01/25 11:30:17;;;;;;;558.17;303.27;;;;;;;;;;4966551;28;20248;-50
2023/01/25 11:32:43;;;;;;;531.30;284.90;;;;;;;;;;4977484;28;20215;-48
2023/01/25 11:35:14;;;;;;;542.33;282.67;;;;;;;;;;4962604;28;20354;-49
2023/01/25 11:37:43;;;;;;;574.20;309.13;;;;;;;;;;4958600;28;20233;-48
2023/01/25 11:40:27;;;;;;;581.97;316.97;;;;;;;;;;4963743;28;20217;-50
2023/01/25 11:42:59;;;;;;;510.53;276.07;;;;;;;;;;4947390;28;21293;-47
2023/01/25 11:45:44;;;;;;;566.73;310.00;;;;;;;;;;4957097;28;20264;-50
2023/01/25 11:48:13;;;;;;;525.37;272.37;;;;;;;;;;4981622;28;20222;-48
2023/01/25 11:50:46;;;;;;;546.83;289.87;;;;;;;;;;4958523;28;20192;-48
2023/01/25 11:53:21;;;;;;;551.13;308.43;;;;;;;;;;4949074;28;20251;-51
2023/01/25 11:55:50;;;;;;;558.57;300.30;;;;;;;;;;4952083;28;20228;-48
2023/01/25 11:58:42;;;;;;;513.30;266.97;;;;;;;;;;4964664;28;20299;-48
2023/01/25 12:01:08;;;;;;;563.20;302.57;;;;;;;;;;4959550;28;20343;-49
2023/01/25 12:03:43;;;;;;;558.43;304.50;;;;;;;;;;4955246;28;20225;-48
2023/01/25 12:06:22;;;;;;;506.10;259.87;;;;;;;;;;4970582;28;20285;-48
2023/01/25 12:09:08;;;;;;;553.53;301.80;;;;;;;;;;4937890;28;20678;-49
2023/01/25 12:11:34;;;;;;;533.83;276.43;;;;;;;;;;4971792;28;20200;-51
2023/01/25 12:14:00;;;;;;;568.60;310.87;;;;;;;;;;4956395;28;20651;-48
2023/01/25 12:16:29;;;;;;;625.33;353.33;;;;;;;;;;4951575;28;20652;-48
2023/01/25 12:19:16;;;;;;;527.43;268.87;;;;;;;;;;4973331;28;20283;-50
2023/01/25 12:22:08;;;;;;;527.83;278.73;;;;;;;;;;4946565;28;20378;-49
2023/01/25 12:24:54;;;;;;;483.43;252.57;;;;;;;;;;4973878;28;20667;-48
2023/01/25 12:27:22;;;;;;;564.80;306.43;;;;;;;;;;4970576;28;20244;-49
2023/01/25 12:29:48;;;;;;;550.67;298.20;;;;;;;;;;4966584;28;20256;-49
2023/01/25 12:32:18;;;;;;;547.70;285.60;;;;;;;;;;4964835;28;20181;-48
2023/01/25 12:34:48;;;;;;;507.23;263.87;;;;;;;;;;4965655;28;20269;-50
2023/01/25 12:37:37;;;;;;;513.83;266.50;;;;;;;;;;4971375;28;20220;-48
2023/01/25 12:40:13;;;;;;;537.30;280.27;;;;;;;;;;4959391;28;20217;-47
2023/01/25 12:42:46;;;;;;;529.20;284.43;;;;;;;;;;4972191;28;21511;-49
2023/01/25 12:45:18;;;;;;;656.00;377.13;;;;;;;;;;4962899;28;20733;-50
2023/01/25 12:47:50;;;;;;;547.30;291.90;;;;;;;;;;4961157;28;23378;-48
2023/01/25 12:50:16;;;;;;;517.23;273.93;;;;;;;;;;4966238;28;20211;-50
2023/01/25 12:52:47;;;;;;;500.53;263.20;;;;;;;;;;4973126;28;21105;-49
2023/01/25 12:55:15;;;;;;;547.33;294.90;;;;;;;;;;4960636;28;20714;-48
2023/01/25 12:57:45;;;;;;;602.87;325.33;;;;;;;;;;4977275;23;20744;-49
2023/01/25 13:00:20;;;;;;;598.67;315.70;;;;;;;;;;4962285;28;20222;-50
2023/01/25 13:02:58;;;;;;;565.23;297.27;;;;;;;;;;4988454;28;20200;-49
2023/01/25 13:05:39;;;;;;;640.10;340.87;;;;;;;;;;4960273;28;20700;-49
2023/01/25 13:08:11;;;;;;;569.47;295.90;;;;;;;;;;4935709;28;20219;-50
2023/01/25 13:10:40;;;;;;;588.60;299.23;;;;;;;;;;4915466;28;20324;-49
2023/01/25 13:13:26;;;;;;;640.40;342.83;;;;;;;;;;4903903;28;20908;-50
2023/01/25 13:15:53;;;;;;;575.17;304.27;;;;;;;;;;4930788;28;20312;-50
2023/01/25 13:18:29;;;;;;;617.20;330.70;;;;;;;;;;4906007;28;20226;-50
2023/01/25 13:21:00;;;;;;;597.00;310.20;;;;;;;;;;4918771;28;20383;-49
2023/01/25 13:23:33;;;;;;;609.07;323.57;;;;;;;;;;4908336;28;20194;-49
2023/01/25 13:26:18;;;;;;;542.43;289.33;;;;;;;;;;4930608;28;20302;-49
2023/01/25 13:28:47;;;;;;;561.57;294.50;;;;;;;;;;4929011;28;20258;-49
2023/01/25 13:31:32;;;;;;;575.60;298.50;;;;;;;;;;4928168;28;20849;-49
2023/01/25 13:33:59;;;;;;;607.10;318.13;;;;;;;;;;4926471;28;20364;-49
2023/01/25 13:36:40;;;;;;;587.20;307.27;;;;;;;;;;4931946;28;20220;-49
2023/01/25 13:39:28;;;;;;;551.23;295.43;;;;;;;;;;4929145;28;20249;-49
2023/01/25 13:42:15;;;;;;;562.03;286.30;;;;;;;;;;4926092;28;20337;-48
2023/01/25 13:44:46;;;;;;;575.63;294.10;;;;;;;;;;4931883;28;20186;-49
2023/01/25 13:47:23;;;;;;;583.40;308.63;;;;;;;;;;4922741;28;20214;-49
2023/01/25 13:50:08;;;;;;;568.53;301.90;;;;;;;;;;4917233;28;20807;-49
2023/01/25 13:52:34;;;;;;;641.23;341.47;;;;;;;;;;4917276;28;21446;-49
2023/01/25 13:55:01;;;;;;;576.93;300.63;;;;;;;;;;4925212;28;20388;-49
2023/01/25 13:57:31;;;;;;;538.33;278.67;;;;;;;;;;4940177;28;20223;-49
2023/01/25 14:00:09;;;;;;;607.53;319.03;;;;;;;;;;4934481;28;20231;-49
2023/01/25 14:02:36;;;;;;;573.63;294.03;;;;;;;;;;4936456;28;20190;-49
2023/01/25 14:05:04;;;;;;;571.37;298.97;;;;;;;;;;4940201;28;20649;-50
2023/01/25 14:07:32;;;;;;;587.47;309.00;;;;;;;;;;4914872;28;20751;-49